Time;durP1;ratioP1;P1;durP2;ratioP2;P2;SDS_P1;SDS_P2;PMS_P1;PMS_P2;Temp;Humidity;BMP_temperature;BMP_pressure;BME280_temperature;BME280_humidity;BME280_pressure;Samples;Min_cycle;Max_cycle;Signal;HPM_P1;HPM_P2
2024/01/13 00:00:44;;;;;;;24.60;9.70;;;8.80;99.90;;;;;;5048487;28;20079;-82
2024/01/13 00:03:10;;;;;;;24.52;9.73;;;7.90;99.90;;;;;;5053218;28;20076;-79
2024/01/13 00:05:35;;;;;;;18.98;7.72;;;8.60;99.90;;;;;;5052819;28;20147;-80
2024/01/13 00:08:01;;;;;;;17.90;8.07;;;8.80;99.90;;;;;;5052499;28;20036;-80
2024/01/13 00:10:27;;;;;;;19.10;7.95;;;8.00;99.90;;;;;;5049565;28;20116;-77
2024/01/13 00:12:52;;;;;;;19.48;8.20;;;8.80;99.90;;;;;;5069546;28;20036;-79
2024/01/13 00:15:19;;;;;;;18.85;9.60;;;8.70;99.90;;;;;;5069731;28;20045;-81
2024/01/13 00:17:44;;;;;;;17.95;8.10;;;8.00;99.90;;;;;;5076467;28;20128;-78
2024/01/13 00:20:10;;;;;;;21.45;9.65;;;8.50;99.90;;;;;;5034850;28;20123;-75
2024/01/13 00:22:36;;;;;;;22.35;8.15;;;8.80;99.90;;;;;;5069750;28;20067;-77
2024/01/13 00:25:02;;;;;;;19.90;9.43;;;8.60;99.90;;;;;;5052172;28;20437;-79
2024/01/13 00:27:28;;;;;;;21.33;9.27;;;8.70;99.90;;;;;;5019533;28;20380;-78
2024/01/13 00:29:53;;;;;;;15.25;9.10;;;8.60;99.90;;;;;;5048832;28;20040;-82
2024/01/13 00:32:19;;;;;;;19.27;7.88;;;8.80;99.90;;;;;;5074181;28;20515;-79
2024/01/13 00:34:45;;;;;;;17.52;7.57;;;8.00;99.90;;;;;;5051645;28;20036;-76
2024/01/13 00:37:11;;;;;;;25.05;9.02;;;8.70;99.90;;;;;;5069323;28;20054;-79
2024/01/13 00:39:36;;;;;;;24.45;10.07;;;8.80;99.90;;;;;;5053025;28;20044;-80
2024/01/13 00:42:02;;;;;;;19.25;9.20;;;8.70;99.90;;;;;;5062909;28;20036;-78
2024/01/13 00:44:28;;;;;;;28.27;8.68;;;8.10;99.90;;;;;;5068268;28;20082;-78
2024/01/13 00:46:53;;;;;;;25.65;8.68;;;8.90;99.90;;;;;;5051447;28;20049;-75
2024/01/13 00:49:19;;;;;;;25.17;9.55;;;8.90;99.90;;;;;;5052196;28;20496;-83
2024/01/13 00:51:45;;;;;;;19.10;8.85;;;8.10;99.90;;;;;;5050280;28;20530;-78
2024/01/13 00:54:10;;;;;;;14.77;8.73;;;8.50;99.90;;;;;;5051693;28;20032;-77
2024/01/13 00:56:36;;;;;;;12.45;7.35;;;8.90;99.90;;;;;;5052034;28;20041;-78
2024/01/13 00:59:02;;;;;;;13.43;8.13;;;8.10;99.90;;;;;;5051474;28;20040;-77
2024/01/13 01:01:27;;;;;;;12.90;7.60;;;8.90;99.90;;;;;;5048240;28;20047;-76
2024/01/13 01:03:53;;;;;;;11.65;7.40;;;8.40;99.90;;;;;;5067026;28;20055;-76
2024/01/13 01:06:19;;;;;;;14.07;7.88;;;8.40;99.90;;;;;;5035411;28;20048;-80
2024/01/13 01:08:45;;;;;;;12.90;6.55;;;8.10;99.90;;;;;;5051350;28;20033;-76
2024/01/13 01:11:11;;;;;;;14.77;7.65;;;8.10;99.90;;;;;;5034692;28;20145;-77
2024/01/13 01:13:37;;;;;;;15.38;7.63;;;8.10;99.90;;;;;;5050258;28;20485;-79
2024/01/13 01:16:03;;;;;;;12.35;6.60;;;8.10;99.90;;;;;;5033446;28;20569;-78
2024/01/13 01:18:29;;;;;;;15.57;7.90;;;8.40;99.90;;;;;;5034731;28;20051;-78
2024/01/13 01:20:55;;;;;;;13.40;6.53;;;8.80;99.90;;;;;;5067609;28;20040;-79
2024/01/13 01:23:21;;;;;;;12.73;6.47;;;8.70;99.90;;;;;;5047924;28;20036;-82
2024/01/13 01:25:46;;;;;;;14.48;6.22;;;8.50;99.90;;;;;;5067279;28;20056;-76
2024/01/13 01:28:12;;;;;;;12.00;5.82;;;8.00;99.90;;;;;;5050656;28;20036;-77
2024/01/13 01:30:38;;;;;;;11.30;6.30;;;8.10;99.90;;;;;;5067056;28;20101;-79
2024/01/13 01:33:03;;;;;;;14.07;7.13;;;8.20;99.90;;;;;;5046027;28;20083;-82
2024/01/13 01:35:29;;;;;;;17.67;8.90;;;8.90;99.90;;;;;;5051259;28;20040;-77
2024/01/13 01:37:55;;;;;;;19.67;8.63;;;8.30;99.90;;;;;;5050447;28;20851;-78
2024/01/13 01:40:24;;;;;;;11.20;6.75;;;8.70;99.90;;;;;;5034178;28;20036;-78
2024/01/13 01:42:49;;;;;;;14.23;7.43;;;8.30;99.90;;;;;;5064818;28;20041;-80
2024/01/13 01:45:15;;;;;;;16.98;8.35;;;8.40;99.90;;;;;;5049923;28;20043;-76
2024/01/13 01:47:42;;;;;;;15.73;7.65;;;9.00;99.90;;;;;;5050370;28;20469;-78
2024/01/13 01:50:09;;;;;;;15.18;7.53;;;8.90;99.90;;;;;;5067250;28;20143;-79
2024/01/13 01:52:36;;;;;;;9.57;5.95;;;8.20;99.90;;;;;;5066252;28;20149;-80
2024/01/13 01:55:04;;;;;;;11.95;6.07;;;8.30;99.90;;;;;;5049739;28;20059;-82
2024/01/13 01:57:30;;;;;;;18.77;6.70;;;8.20;99.90;;;;;;5051484;28;20064;-79
2024/01/13 01:59:56;;;;;;;20.73;7.15;;;8.20;99.90;;;;;;5066727;28;20043;-80
2024/01/13 02:02:21;;;;;;;13.18;7.15;;;8.70;99.90;;;;;;5051329;28;20033;-79
2024/01/13 02:04:48;;;;;;;13.98;5.97;;;8.00;99.90;;;;;;5043547;28;20048;-82
2024/01/13 02:07:15;;;;;;;15.75;8.48;;;8.70;99.90;;;;;;5068033;28;20392;-80
2024/01/13 02:09:42;;;;;;;12.73;6.00;;;8.70;99.90;;;;;;5050926;28;20118;-77
2024/01/13 02:12:08;;;;;;;15.80;7.93;;;8.50;99.90;;;;;;5067498;28;20419;-80
2024/01/13 02:14:34;;;;;;;18.08;8.88;;;8.10;99.90;;;;;;5064694;28;20113;-78
2024/01/13 02:16:59;;;;;;;15.65;7.60;;;8.90;99.90;;;;;;5032415;28;20036;-78
2024/01/13 02:19:33;;;;;;;14.30;6.30;;;8.90;99.90;;;;;;5067213;28;20033;-77
2024/01/13 02:22:00;;;;;;;13.00;6.10;;;8.40;99.90;;;;;;5048967;28;20463;-81
2024/01/13 02:24:25;;;;;;;14.10;7.28;;;8.80;99.90;;;;;;5063822;28;20045;-80
2024/01/13 02:26:51;;;;;;;10.10;6.40;;;8.10;99.90;;;;;;5049861;28;20041;-79
2024/01/13 02:29:17;;;;;;;12.20;6.82;;;8.80;99.90;;;;;;5048054;28;20117;-79
2024/01/13 02:31:42;;;;;;;13.52;7.35;;;8.80;99.90;;;;;;5067693;28;20108;-79
2024/01/13 02:34:08;;;;;;;10.40;5.93;;;8.70;99.90;;;;;;5015515;28;20037;-80
2024/01/13 02:36:34;;;;;;;10.98;6.95;;;8.10;99.90;;;;;;5050790;28;20095;-78
2024/01/13 02:38:59;;;;;;;9.73;5.50;;;8.00;99.90;;;;;;5033346;28;20041;-80
2024/01/13 02:41:25;;;;;;;12.10;5.82;;;8.10;99.90;;;;;;5050471;28;20033;-78
2024/01/13 02:43:51;;;;;;;33.92;7.70;;;8.80;99.90;;;;;;5067016;28;20148;-78
2024/01/13 02:46:17;;;;;;;11.30;5.47;;;8.70;99.90;;;;;;5046174;28;20041;-76
2024/01/13 02:48:48;;;;;;;10.07;5.40;;;8.00;99.90;;;;;;5050096;28;20050;-79
2024/01/13 02:51:16;;;;;;;11.10;5.63;;;8.20;99.90;;;;;;5065192;28;20044;-78
2024/01/13 02:53:45;;;;;;;14.30;5.57;;;8.00;99.90;;;;;;5067368;28;20040;-77
2024/01/13 02:56:11;;;;;;;14.35;6.10;;;8.80;99.90;;;;;;5072351;28;20696;-78
2024/01/13 02:58:37;;;;;;;13.65;5.72;;;8.80;99.90;;;;;;5033598;28;20047;-80
2024/01/13 03:01:06;;;;;;;11.52;5.70;;;8.60;99.90;;;;;;5070322;28;20055;-77
2024/01/13 03:03:34;;;;;;;15.40;7.10;;;8.50;99.90;;;;;;5054402;28;20107;-78
2024/01/13 03:06:00;;;;;;;17.05;7.30;;;8.10;99.90;;;;;;5069173;28;20484;-80
2024/01/13 03:08:26;;;;;;;10.38;6.13;;;8.80;99.90;;;;;;5054045;28;20044;-80
2024/01/13 03:10:51;;;;;;;14.30;6.80;;;8.20;99.90;;;;;;5068164;28;20048;-78
2024/01/13 03:13:17;;;;;;;11.43;5.95;;;8.20;99.90;;;;;;5051594;28;20044;-81
2024/01/13 03:15:43;;;;;;;13.60;5.55;;;8.50;99.90;;;;;;5067313;28;20535;-77
2024/01/13 03:18:09;;;;;;;11.43;5.85;;;8.80;99.90;;;;;;5067151;28;20079;-80
2024/01/13 03:20:34;;;;;;;12.45;5.30;;;8.80;99.90;;;;;;5053798;28;20516;-77
2024/01/13 03:23:00;;;;;;;9.88;4.30;;;8.30;99.90;;;;;;5052825;28;20386;-81
2024/01/13 03:25:26;;;;;;;10.82;4.78;;;8.30;99.90;;;;;;5031348;28;20385;-81
2024/01/13 03:27:52;;;;;;;7.30;4.30;;;8.20;99.90;;;;;;5033659;28;20048;-78
2024/01/13 03:30:18;;;;;;;9.07;3.88;;;8.40;99.90;;;;;;5069713;28;20048;-77
2024/01/13 03:32:44;;;;;;;7.15;4.18;;;8.40;99.90;;;;;;5053246;28;20707;-81
2024/01/13 03:35:10;;;;;;;13.55;3.65;;;8.10;99.90;;;;;;5069376;28;20417;-81
2024/01/13 03:37:35;;;;;;;4.97;3.20;;;8.10;99.90;;;;;;5068539;28;20045;-77
2024/01/13 03:40:02;;;;;;;7.93;3.83;;;8.80;99.90;;;;;;5069132;28;20032;-81
2024/01/13 03:42:27;;;;;;;7.28;3.55;;;8.30;99.90;;;;;;5036384;28;20045;-77
2024/01/13 03:44:54;;;;;;;10.52;4.95;;;8.20;99.90;;;;;;5069334;28;20032;-80
2024/01/13 03:47:21;;;;;;;9.05;4.50;;;8.80;99.90;;;;;;5015881;28;20591;-78
2024/01/13 03:49:47;;;;;;;7.85;4.65;;;8.60;99.90;;;;;;5035052;28;20048;-78
2024/01/13 03:52:13;;;;;;;11.35;5.85;;;8.80;99.90;;;;;;5036625;28;20051;-77
2024/01/13 03:54:39;;;;;;;9.30;5.47;;;8.20;99.90;;;;;;5068891;28;20492;-77
2024/01/13 03:57:05;;;;;;;10.23;6.40;;;8.20;99.90;;;;;;5050154;28;20485;-80
2024/01/13 03:59:30;;;;;;;12.27;5.10;;;8.40;99.90;;;;;;5052749;28;20127;-78
2024/01/13 04:01:56;;;;;;;13.25;6.07;;;8.20;99.90;;;;;;5047517;28;20673;-82
2024/01/13 04:04:22;;;;;;;9.85;5.97;;;8.80;99.90;;;;;;5068713;28;20048;-77
2024/01/13 04:06:48;;;;;;;10.30;5.53;;;8.20;99.90;;;;;;5053104;28;20064;-81
2024/01/13 04:09:14;;;;;;;9.10;4.78;;;8.90;99.90;;;;;;5067093;28;20129;-77
2024/01/13 04:11:40;;;;;;;14.05;5.93;;;8.30;99.90;;;;;;5052475;28;20574;-78
2024/01/13 04:14:05;;;;;;;8.95;5.00;;;9.00;99.90;;;;;;5051777;28;20124;-81
2024/01/13 04:16:31;;;;;;;13.63;5.50;;;9.00;99.90;;;;;;5068792;28;20052;-77
2024/01/13 04:18:56;;;;;;;10.60;4.50;;;9.00;99.90;;;;;;5046158;28;20079;-79
2024/01/13 04:21:22;;;;;;;10.63;4.53;;;8.20;99.90;;;;;;5068068;28;20071;-78
2024/01/13 04:23:48;;;;;;;9.63;5.40;;;8.40;99.90;;;;;;5068011;28;20745;-80
2024/01/13 04:26:14;;;;;;;9.07;4.63;;;8.30;99.90;;;;;;5068454;28;20041;-80
2024/01/13 04:28:40;;;;;;;8.98;4.80;;;8.80;99.90;;;;;;5048019;28;20520;-78
2024/01/13 04:31:07;;;;;;;9.32;4.85;;;8.40;99.90;;;;;;5067879;28;20040;-83
2024/01/13 04:33:32;;;;;;;9.55;4.57;;;8.20;99.90;;;;;;5033895;28;20036;-78
2024/01/13 04:35:58;;;;;;;14.32;5.82;;;8.80;99.90;;;;;;5050834;28;20063;-81
2024/01/13 04:38:24;;;;;;;8.27;4.68;;;8.80;99.90;;;;;;5033379;28;20032;-79
2024/01/13 04:40:49;;;;;;;13.20;5.13;;;9.00;99.90;;;;;;5051810;28;20048;-75
2024/01/13 04:43:15;;;;;;;9.20;4.80;;;8.20;99.90;;;;;;5051218;28;20033;-80
2024/01/13 04:45:41;;;;;;;9.45;5.32;;;8.60;99.90;;;;;;5051520;28;20028;-79
2024/01/13 04:48:07;;;;;;;14.20;6.47;;;8.50;99.90;;;;;;5050698;28;20086;-79
2024/01/13 04:50:33;;;;;;;10.98;5.20;;;8.30;99.90;;;;;;5064161;28;20048;-79
2024/01/13 04:52:59;;;;;;;11.73;5.25;;;9.00;99.90;;;;;;5067537;28;20127;-77
2024/01/13 04:55:25;;;;;;;11.68;6.20;;;9.00;99.90;;;;;;5050716;28;20036;-77
2024/01/13 04:57:51;;;;;;;8.93;5.13;;;9.00;99.90;;;;;;5068398;28;20033;-80
2024/01/13 05:00:17;;;;;;;9.65;4.80;;;8.30;99.90;;;;;;5030148;28;20068;-79
2024/01/13 05:02:42;;;;;;;10.77;5.75;;;8.40;99.90;;;;;;5068479;28;20075;-76
2024/01/13 05:05:08;;;;;;;10.07;4.78;;;8.40;99.90;;;;;;5034187;28;20049;-78
2024/01/13 05:07:36;;;;;;;10.93;6.07;;;9.10;99.90;;;;;;5051231;28;20064;-78
2024/01/13 05:10:04;;;;;;;12.27;5.95;;;8.30;99.90;;;;;;5046489;28;20366;-79
2024/01/13 05:12:29;;;;;;;6.68;4.63;;;9.10;99.90;;;;;;5050565;28;20430;-82
2024/01/13 05:14:55;;;;;;;16.75;5.93;;;9.10;99.90;;;;;;5050998;28;20070;-78
2024/01/13 05:17:20;;;;;;;11.15;5.82;;;9.20;99.90;;;;;;5051527;28;20503;-76
2024/01/13 05:19:46;;;;;;;8.02;4.97;;;8.30;99.90;;;;;;5049703;28;20393;-75
2024/01/13 05:22:12;;;;;;;13.18;6.50;;;9.00;99.90;;;;;;5049674;28;20507;-77
2024/01/13 05:24:37;;;;;;;11.52;6.47;;;8.40;99.90;;;;;;5050521;28;20113;-77
2024/01/13 05:27:03;;;;;;;12.68;6.50;;;9.20;99.90;;;;;;5067828;28;20103;-76
2024/01/13 05:29:29;;;;;;;13.57;6.78;;;8.80;99.90;;;;;;5068170;28;20040;-77
2024/01/13 05:31:55;;;;;;;10.13;5.47;;;9.10;99.90;;;;;;5063487;28;20090;-74
2024/01/13 05:34:20;;;;;;;15.00;6.38;;;9.20;99.90;;;;;;5033658;28;20037;-76
2024/01/13 05:36:47;;;;;;;10.02;6.30;;;8.20;99.90;;;;;;5051181;28;20297;-75
2024/01/13 05:39:13;;;;;;;13.10;5.38;;;9.00;99.90;;;;;;5066696;28;20350;-78
2024/01/13 05:41:42;;;;;;;12.27;5.55;;;8.60;99.90;;;;;;5047485;28;20044;-79
2024/01/13 05:44:07;;;;;;;13.38;5.72;;;8.60;99.90;;;;;;5069936;28;20468;-77
2024/01/13 05:46:33;;;;;;;15.52;6.20;;;9.10;99.90;;;;;;5046324;28;20040;-79
2024/01/13 05:49:01;;;;;;;9.02;6.13;;;8.90;99.90;;;;;;5067949;28;20037;-78
2024/01/13 05:51:28;;;;;;;10.70;6.00;;;8.40;99.90;;;;;;5092223;28;20052;-82
2024/01/13 05:53:54;;;;;;;10.65;5.07;;;9.10;99.90;;;;;;5049954;28;20036;-83
2024/01/13 05:56:19;;;;;;;12.73;4.80;;;8.40;99.90;;;;;;5034157;28;20135;-81
2024/01/13 05:58:45;;;;;;;12.50;6.20;;;8.80;99.90;;;;;;5051742;28;20036;-82
2024/01/13 06:01:11;;;;;;;11.73;5.07;;;8.50;99.90;;;;;;5047239;28;20036;-78
2024/01/13 06:03:36;;;;;;;8.32;5.75;;;8.20;99.90;;;;;;5066729;28;20052;-75
2024/01/13 06:06:02;;;;;;;11.02;4.72;;;8.90;99.90;;;;;;5068827;28;20060;-77
2024/01/13 06:08:29;;;;;;;9.07;5.03;;;8.20;99.90;;;;;;5051723;28;20471;-77
2024/01/13 06:10:54;;;;;;;8.75;4.63;;;8.30;99.90;;;;;;5055671;28;20040;-76
2024/01/13 06:13:20;;;;;;;9.57;5.63;;;8.40;99.90;;;;;;5049109;28;20059;-74
2024/01/13 06:15:46;;;;;;;8.57;5.38;;;8.20;99.90;;;;;;5067695;28;20044;-74
2024/01/13 06:18:11;;;;;;;8.30;4.68;;;8.30;99.90;;;;;;5048298;28;20041;-78
2024/01/13 06:20:45;;;;;;;10.32;4.68;;;8.20;99.90;;;;;;5093378;28;20032;-84
2024/01/13 06:23:11;;;;;;;7.55;4.05;;;9.20;99.90;;;;;;5068711;28;20107;-78
2024/01/13 06:25:37;;;;;;;7.78;4.30;;;8.90;99.90;;;;;;5067274;28;20737;-78
2024/01/13 06:28:03;;;;;;;9.32;4.20;;;8.80;99.90;;;;;;5050964;28;20398;-78
2024/01/13 06:30:28;;;;;;;8.45;4.05;;;8.20;99.90;;;;;;5048635;28;20489;-76
2024/01/13 06:32:54;;;;;;;8.93;4.57;;;8.40;99.90;;;;;;5051242;28;20131;-76
2024/01/13 06:35:20;;;;;;;7.13;4.35;;;8.90;99.90;;;;;;5071738;28;20049;-78
2024/01/13 06:37:45;;;;;;;9.32;4.40;;;8.40;99.90;;;;;;5071725;28;20028;-78
2024/01/13 06:40:12;;;;;;;9.18;3.88;;;9.20;99.90;;;;;;5038572;28;20048;-76
2024/01/13 06:42:38;;;;;;;8.18;4.25;;;8.30;99.90;;;;;;5053705;28;20094;-77
2024/01/13 06:45:04;;;;;;;6.78;3.92;;;9.20;99.90;;;;;;5034688;28;20111;-75
2024/01/13 06:47:30;;;;;;;9.35;4.30;;;8.30;99.90;;;;;;5071249;28;20040;-77
2024/01/13 06:49:56;;;;;;;7.10;4.05;;;9.30;99.90;;;;;;5038712;28;20036;-80
2024/01/13 06:52:21;;;;;;;9.40;5.53;;;8.90;99.90;;;;;;5051407;28;20047;-78
2024/01/13 06:54:47;;;;;;;6.05;3.80;;;8.50;99.90;;;;;;5054970;28;20037;-79
2024/01/13 06:57:13;;;;;;;8.43;3.90;;;8.20;99.90;;;;;;5055065;28;20048;-81
2024/01/13 06:59:39;;;;;;;8.18;3.88;;;9.30;99.90;;;;;;5037247;28;20036;-78
2024/01/13 07:02:05;;;;;;;6.93;3.72;;;8.70;99.90;;;;;;5065415;28;20056;-81
2024/01/13 07:04:36;;;;;;;6.60;3.65;;;9.10;99.90;;;;;;5077562;28;20493;-81
2024/01/13 07:07:02;;;;;;;7.00;3.63;;;8.90;99.90;;;;;;5054306;28;20071;-77
2024/01/13 07:09:28;;;;;;;5.30;3.35;;;9.20;99.90;;;;;;5053461;28;20056;-79
2024/01/13 07:11:53;;;;;;;3.22;2.50;;;8.40;99.90;;;;;;5069094;28;20812;-77
2024/01/13 07:14:19;;;;;;;5.97;2.70;;;8.60;99.90;;;;;;5023813;28;20055;-77
2024/01/13 07:16:44;;;;;;;5.32;3.50;;;8.70;99.90;;;;;;5055293;28;20052;-76
2024/01/13 07:19:10;;;;;;;7.07;3.50;;;9.10;99.90;;;;;;5071068;28;20044;-77
2024/01/13 07:21:36;;;;;;;6.53;3.28;;;8.60;99.90;;;;;;5069217;28;20056;-79
2024/01/13 07:24:03;;;;;;;5.18;3.55;;;9.10;99.90;;;;;;5023998;28;20090;-76
2024/01/13 07:26:29;;;;;;;6.63;4.65;;;8.30;99.90;;;;;;5034953;28;20036;-78
2024/01/13 07:28:55;;;;;;;5.53;4.40;;;9.30;99.90;;;;;;5055233;28;20033;-78
2024/01/13 07:31:21;;;;;;;7.57;4.97;;;9.30;99.90;;;;;;5071115;28;20123;-75
2024/01/13 07:33:47;;;;;;;6.40;4.68;;;9.10;99.90;;;;;;5060871;28;20152;-79
2024/01/13 07:36:12;;;;;;;7.38;4.15;;;8.60;99.90;;;;;;5071137;28;20059;-78
2024/01/13 07:38:39;;;;;;;8.57;5.55;;;9.40;99.90;;;;;;5054079;28;20098;-79
2024/01/13 07:41:07;;;;;;;8.15;4.45;;;9.00;99.90;;;;;;5070896;28;20423;-80
2024/01/13 07:43:32;;;;;;;8.68;5.10;;;9.30;99.90;;;;;;5065954;28;20036;-79
2024/01/13 07:45:59;;;;;;;9.02;4.88;;;9.20;99.90;;;;;;5076109;28;20039;-82
2024/01/13 07:48:24;;;;;;;9.45;5.07;;;8.60;99.90;;;;;;5070676;28;20037;-76
2024/01/13 07:50:50;;;;;;;17.02;7.30;;;9.30;99.90;;;;;;5053417;28;20044;-81
2024/01/13 07:53:16;;;;;;;13.65;9.27;;;9.40;99.90;;;;;;5053287;28;20044;-84
2024/01/13 07:55:41;;;;;;;19.58;11.93;;;9.00;99.90;;;;;;5053757;28;20428;-77
2024/01/13 07:58:07;;;;;;;19.95;13.27;;;8.60;99.90;;;;;;5054794;28;20060;-79
2024/01/13 08:00:33;;;;;;;23.23;14.52;;;9.40;99.90;;;;;;5009526;28;20115;-77
2024/01/13 08:02:58;;;;;;;30.27;17.40;;;8.80;99.90;;;;;;5070600;28;20044;-76
2024/01/13 08:05:24;;;;;;;25.50;15.27;;;8.60;99.90;;;;;;5048509;28;20056;-77
2024/01/13 08:07:50;;;;;;;26.02;16.42;;;9.40;99.90;;;;;;5036653;28;20068;-78
2024/01/13 08:10:15;;;;;;;29.17;20.60;;;8.80;99.90;;;;;;5070477;28;20048;-79
2024/01/13 08:12:41;;;;;;;32.88;21.13;;;8.80;99.90;;;;;;5053290;28;20044;-82
2024/01/13 08:15:07;;;;;;;37.95;22.88;;;9.20;99.90;;;;;;5062580;28;20040;-83
2024/01/13 08:17:33;;;;;;;36.05;23.85;;;9.00;99.90;;;;;;5062613;28;20130;-78
2024/01/13 08:19:59;;;;;;;44.35;27.05;;;9.50;99.90;;;;;;5050521;28;20047;-77
2024/01/13 08:22:24;;;;;;;40.58;22.65;;;9.40;99.90;;;;;;5053244;28;20450;-79
2024/01/13 08:24:50;;;;;;;41.17;26.35;;;9.00;99.90;;;;;;5052521;28;20036;-77
2024/01/13 08:27:16;;;;;;;37.70;22.02;;;8.60;99.90;;;;;;5066262;28;20226;-78
2024/01/13 08:29:41;;;;;;;39.05;26.17;;;8.60;99.90;;;;;;5032652;28;20075;-77
2024/01/13 08:32:07;;;;;;;42.22;26.20;;;8.70;99.90;;;;;;5029678;28;20431;-78
2024/01/13 08:34:33;;;;;;;43.25;25.88;;;8.60;99.90;;;;;;5052815;28;20063;-77
2024/01/13 08:36:59;;;;;;;39.25;22.88;;;8.70;99.90;;;;;;5018724;28;20033;-80
2024/01/13 08:39:24;;;;;;;46.90;26.88;;;9.20;99.90;;;;;;5065409;28;20128;-77
2024/01/13 08:41:50;;;;;;;48.63;24.77;;;9.60;99.90;;;;;;5052996;28;20477;-77
2024/01/13 08:44:16;;;;;;;43.00;28.27;;;9.50;99.90;;;;;;5053111;28;20055;-77
2024/01/13 08:46:41;;;;;;;46.63;26.13;;;9.60;99.90;;;;;;5042132;28;20049;-79
2024/01/13 08:49:08;;;;;;;49.50;28.77;;;9.10;99.90;;;;;;5053281;28;20162;-79
2024/01/13 08:51:34;;;;;;;59.05;35.60;;;9.20;99.90;;;;;;5052887;28;20124;-80
2024/01/13 08:54:00;;;;;;;61.22;37.28;;;8.70;99.90;;;;;;5052885;28;20496;-76
2024/01/13 08:56:26;;;;;;;61.28;36.75;;;9.20;99.90;;;;;;5063747;28;20127;-73
2024/01/13 08:58:52;;;;;;;56.15;32.50;;;9.60;99.90;;;;;;5052285;28;20670;-73
2024/01/13 09:01:18;;;;;;;63.58;35.53;;;9.50;99.90;;;;;;5052490;28;20131;-75
2024/01/13 09:03:45;;;;;;;62.70;41.22;;;8.80;99.90;;;;;;5068849;28;20051;-75
2024/01/13 09:06:11;;;;;;;73.13;45.08;;;9.10;99.90;;;;;;5050509;28;20370;-76
2024/01/13 09:08:38;;;;;;;65.10;40.78;;;9.00;99.90;;;;;;5052145;28;20033;-77
2024/01/13 09:11:05;;;;;;;63.90;41.97;;;8.80;99.90;;;;;;5068805;28;20058;-74
2024/01/13 09:13:30;;;;;;;57.55;35.20;;;9.60;99.90;;;;;;5047170;28;20056;-74
2024/01/13 09:15:56;;;;;;;65.18;42.53;;;8.80;99.90;;;;;;5068993;28;20037;-77
2024/01/13 09:18:22;;;;;;;64.80;40.88;;;9.60;99.90;;;;;;5064414;28;20633;-71
2024/01/13 09:20:47;;;;;;;66.57;42.95;;;9.30;99.90;;;;;;5068284;28;20044;-79
2024/01/13 09:23:13;;;;;;;69.07;42.58;;;9.50;99.90;;;;;;5068300;28;20127;-83
2024/01/13 09:25:39;;;;;;;69.18;43.03;;;8.70;99.90;;;;;;5051830;28;20045;-78
2024/01/13 09:28:04;;;;;;;65.82;41.65;;;8.80;99.90;;;;;;5042274;28;20064;-79
2024/01/13 09:30:30;;;;;;;70.88;45.70;;;8.80;99.90;;;;;;5082473;28;20037;-77
2024/01/13 09:32:56;;;;;;;68.45;45.40;;;8.80;99.90;;;;;;5064758;28;20098;-79
2024/01/13 09:35:21;;;;;;;66.55;46.03;;;9.40;99.90;;;;;;5066137;28;20056;-78
2024/01/13 09:37:47;;;;;;;64.95;40.90;;;8.80;99.90;;;;;;5033597;28;20036;-78
2024/01/13 09:40:15;;;;;;;67.30;41.83;;;9.70;99.90;;;;;;5010314;28;20063;-74
2024/01/13 09:43:19;;;;;;;78.90;49.10;;;9.00;99.90;;;;;;5081515;28;20044;-78
2024/01/13 09:45:49;;;;;;;82.80;48.80;;;8.80;99.90;;;;;;5090811;28;20139;-77
2024/01/13 09:48:17;;;;;;;84.20;52.15;;;8.80;99.90;;;;;;5061903;28;20079;-79
2024/01/13 09:50:45;;;;;;;90.78;54.47;;;9.80;99.90;;;;;;5048368;28;20045;-77
2024/01/13 09:53:22;;;;;;;91.75;55.13;;;9.80;99.90;;;;;;5081715;28;20057;-77
2024/01/13 09:55:50;;;;;;;79.47;53.53;;;9.80;99.90;;;;;;5053817;28;20045;-78
2024/01/13 09:58:16;;;;;;;85.30;55.25;;;9.40;99.90;;;;;;5037673;28;20131;-74
2024/01/13 10:00:42;;;;;;;85.05;54.30;;;9.70;99.90;;;;;;5067866;28;20125;-79
2024/01/13 10:03:07;;;;;;;89.05;53.38;;;9.90;99.90;;;;;;5051323;28;20098;-76
2024/01/13 10:05:33;;;;;;;84.72;54.40;;;9.60;99.90;;;;;;5051461;28;20088;-78
2024/01/13 10:07:59;;;;;;;82.10;53.47;;;9.50;99.90;;;;;;5059938;28;20035;-75
2024/01/13 10:10:25;;;;;;;80.60;52.97;;;9.30;99.90;;;;;;5068284;28;20083;-78
2024/01/13 10:12:52;;;;;;;76.82;52.30;;;9.80;99.90;;;;;;5051159;28;20052;-77
2024/01/13 10:15:18;;;;;;;78.05;53.08;;;9.50;99.90;;;;;;5034856;28;20037;-77
2024/01/13 10:17:44;;;;;;;80.60;53.90;;;9.70;99.90;;;;;;5044589;28;20040;-78
2024/01/13 10:20:13;;;;;;;75.95;52.50;;;9.10;99.90;;;;;;5064750;28;20060;-77
2024/01/13 10:22:39;;;;;;;79.13;53.10;;;10.10;99.90;;;;;;5064365;28;20041;-77
2024/01/13 10:25:06;;;;;;;75.47;50.78;;;9.00;99.90;;;;;;5047891;28;20069;-79
2024/01/13 10:27:32;;;;;;;72.57;51.20;;;9.30;99.90;;;;;;5037676;28;20055;-74
2024/01/13 10:29:59;;;;;;;73.32;50.60;;;9.20;99.90;;;;;;5090375;28;20029;-78
2024/01/13 10:32:25;;;;;;;73.38;46.40;;;9.50;99.90;;;;;;5034655;28;20041;-75
2024/01/13 10:34:53;;;;;;;67.70;43.95;;;10.10;99.90;;;;;;5051125;28;20051;-76
2024/01/13 10:37:19;;;;;;;66.10;47.20;;;9.20;99.90;;;;;;5066954;28;20129;-77
2024/01/13 10:39:44;;;;;;;72.60;48.00;;;10.20;99.90;;;;;;5066634;28;20079;-79
2024/01/13 10:42:10;;;;;;;67.63;45.30;;;9.60;99.90;;;;;;5034633;28;20049;-75
2024/01/13 10:44:59;;;;;;;66.00;43.17;;;10.30;99.90;;;;;;5067820;28;20139;-80
2024/01/13 10:47:34;;;;;;;68.07;43.83;;;10.20;99.90;;;;;;5050873;28;20465;-77
2024/01/13 10:50:01;;;;;;;62.60;41.72;;;10.40;99.90;;;;;;5054517;28;20033;-78
2024/01/13 10:52:35;;;;;;;65.60;42.95;;;9.50;99.90;;;;;;5067679;28;20102;-76
2024/01/13 10:55:03;;;;;;;59.38;41.45;;;10.20;99.90;;;;;;5067103;28;20056;-79
2024/01/13 10:57:29;;;;;;;56.90;37.85;;;9.50;99.90;;;;;;5051138;28;20040;-80
2024/01/13 10:59:56;;;;;;;64.10;36.95;;;9.60;99.90;;;;;;5045169;28;20476;-80
2024/01/13 11:02:22;;;;;;;52.22;35.28;;;9.50;99.90;;;;;;5050803;28;20047;-77
2024/01/13 11:04:48;;;;;;;57.67;34.90;;;10.50;99.90;;;;;;5050518;28;20156;-76
2024/01/13 11:07:14;;;;;;;55.35;34.40;;;10.70;99.90;;;;;;5050620;28;20586;-77
2024/01/13 11:09:41;;;;;;;50.50;31.55;;;9.80;99.90;;;;;;5048140;28;20039;-75
2024/01/13 11:12:17;;;;;;;48.75;31.15;;;9.90;99.90;;;;;;5063911;28;20072;-76
2024/01/13 11:15:27;;;;;;;47.08;29.95;;;9.80;99.90;;;;;;5067250;28;20043;-81
2024/01/13 11:17:53;;;;;;;45.45;27.60;;;9.90;99.90;;;;;;5049898;28;20045;-75
2024/01/13 11:20:19;;;;;;;41.22;25.85;;;10.10;99.90;;;;;;5031821;28;20041;-76
2024/01/13 11:22:59;;;;;;;35.97;25.13;;;10.70;99.90;;;;;;5052058;28;20123;-79
2024/01/13 11:25:25;;;;;;;38.42;23.20;;;10.80;99.90;;;;;;5071319;28;20749;-77
2024/01/13 11:27:56;;;;;;;38.47;24.55;;;10.10;99.90;;;;;;5053694;28;20037;-77
2024/01/13 11:30:39;;;;;;;33.00;20.80;;;10.70;99.90;;;;;;5066690;28;20052;-80
2024/01/13 11:33:12;;;;;;;30.38;21.20;;;10.40;99.90;;;;;;5053771;28;20492;-78
2024/01/13 11:35:38;;;;;;;30.85;21.23;;;9.80;99.90;;;;;;5054455;28;20044;-81
2024/01/13 11:38:08;;;;;;;32.35;19.85;;;10.60;99.90;;;;;;5037386;28;20154;-77
2024/01/13 11:40:34;;;;;;;34.97;20.33;;;10.80;99.90;;;;;;5048282;28;20477;-80
2024/01/13 11:43:00;;;;;;;26.17;18.33;;;10.00;99.90;;;;;;5053591;28;20097;-78
2024/01/13 11:45:40;;;;;;;30.60;19.65;;;10.70;99.90;;;;;;5070788;28;20052;-76
2024/01/13 11:48:38;;;;;;;26.23;18.52;;;10.00;99.90;;;;;;5054705;28;20769;-77
2024/01/13 11:51:08;;;;;;;25.15;17.38;;;10.00;99.90;;;;;;5067638;28;20614;-75
2024/01/13 11:53:44;;;;;;;24.23;17.25;;;10.40;99.90;;;;;;5070818;28;20127;-76
2024/01/13 11:56:11;;;;;;;28.15;17.77;;;9.90;99.90;;;;;;5070811;28;20044;-77
2024/01/13 11:58:38;;;;;;;31.83;18.65;;;10.10;99.90;;;;;;5070720;28;20861;-74
2024/01/13 12:01:09;;;;;;;26.48;16.33;;;10.50;99.90;;;;;;5045477;28;20041;-79
2024/01/13 12:03:35;;;;;;;28.90;17.15;;;10.70;99.90;;;;;;5051409;28;20048;-75
2024/01/13 12:06:01;;;;;;;25.05;16.05;;;11.10;99.90;;;;;;5054088;28;20044;-76
2024/01/13 12:08:27;;;;;;;25.00;15.15;;;10.90;99.90;;;;;;5056094;28;20094;-75
2024/01/13 12:10:55;;;;;;;28.63;16.08;;;10.90;99.90;;;;;;5067697;28;20033;-76
2024/01/13 12:13:22;;;;;;;25.90;15.07;;;10.70;99.90;;;;;;5052926;28;20040;-76
2024/01/13 12:15:48;;;;;;;22.20;13.85;;;11.10;99.90;;;;;;5053484;28;20040;-79
2024/01/13 12:18:22;;;;;;;24.20;14.75;;;11.00;99.90;;;;;;5045445;28;20043;-77
2024/01/13 12:20:57;;;;;;;19.27;12.98;;;11.10;99.90;;;;;;5049453;28;20152;-76
2024/01/13 12:23:23;;;;;;;19.23;12.27;;;10.10;99.90;;;;;;5051227;28;20029;-75
2024/01/13 12:25:51;;;;;;;21.85;11.82;;;11.00;99.90;;;;;;5068995;28;20358;-73
2024/01/13 12:28:17;;;;;;;17.92;10.70;;;10.30;99.90;;;;;;5031602;28;20102;-74
2024/01/13 12:30:44;;;;;;;18.05;10.63;;;10.50;99.90;;;;;;5065798;28;20083;-79
2024/01/13 12:33:11;;;;;;;16.80;10.65;;;10.30;99.90;;;;;;5065840;28;20503;-79
2024/01/13 12:35:37;;;;;;;16.75;10.27;;;10.50;99.90;;;;;;5052369;28;20060;-77
2024/01/13 12:38:06;;;;;;;16.60;10.02;;;10.50;99.90;;;;;;5066393;28;20048;-75
2024/01/13 12:40:33;;;;;;;15.35;10.75;;;11.10;99.90;;;;;;5083101;28;20048;-76